Les résultats vous sont offerts par

Télécharger en pdf

 

Les boucles du Val de Saône - 10 km

24/03/2019 - Gray

482 classés sur 512 inscrits

 

 

Place Nom Prénom Dossard Temps Ecart/1ier Catégorie Sexe Club
1  CACHARD  SYLVAIN 941 00:31:59   ES M  CHAMPIONNAT UNIVERSITAIRE
2  RATTI  ENZO 961 00:32:42 + 00:00:43 JU M  CHAMPIONNAT UNIVERSITAIRE
3  CALLIER  ROMAIN 1377 00:33:08 + 00:01:09 SE M  ENTENTE JURA CENTRE ATHLETISME*
4  COEUDEVEZ  PAUL 969 00:33:11 + 00:01:12 ES M  CHAMPIONNAT UNIVERSITAIRE
5  MARTIN  FRANCOIS 1394 00:33:32 + 00:01:33 SE M  ATHLETIC CLB SALEEN
6  FOURMONT  BAPTISTE 950 00:33:39 + 00:01:40 ES M  CHAMPIONNAT UNIVERSITAIRE
7  GOMES DOS SANTOS  ESTEBAN 1217 00:34:23 + 00:02:24 SE M  TRI VAL DE GRAY
8  SIRON  SEBASTIEN 1301 00:34:25 + 00:02:26 SE M  AC CHATENOIS LES FORGES
9  DENIS  VINCENT 1100 00:34:27 + 00:02:28 CA M  S/L ATHLE 21 AO ARNETOISE
10  SOULIER  OLIVIER 1364 00:34:28 + 00:02:29 SE M  AC CHENOVE
11  CHARLES  LOUIS 1374 00:35:01 + 00:03:02 SE M  GA HAUT SAONOIS (FC)
12  POUILLARD  ANTOINE 960 00:35:18 + 00:03:19 ES M  CHAMPIONNAT UNIVERSITAIRE
13  DEBROCK  AUGUSTIN 946 00:35:39 + 00:03:40 JU M  CHAMPIONNAT UNIVERSITAIRE
14  POILLOT  REMI 1328 00:35:40 + 00:03:41 SE M  S/L ATHLE 21 AO ARNETOISE
15  PERRAULT  THIBAULT 1371 00:35:57 + 00:03:58 ES M  ASPTT DIJON ATHLETISME
16  BLAIN  KYLIAN 938 00:35:59 + 00:04:00 ES M  CHAMPIONNAT UNIVERSITAIRE
17  GREGOIRE  NATHAN 952 00:36:03 + 00:04:04 ES M  CHAMPIONNAT UNIVERSITAIRE
18  RAULT  FRANCOIS 962 00:36:03 + 00:04:04 ES M  CHAMPIONNAT UNIVERSITAIRE
19  COEUR D'ACIER  ANTHONY 943 00:36:07 + 00:04:08 JU M  CHAMPIONNAT UNIVERSITAIRE
20  MORE  THIBAULT 955 00:36:10 + 00:04:11 ES M  CHAMPIONNAT UNIVERSITAIRE
21  RIMET MIGNON  LOIC 1175 00:36:13 + 00:04:14 M2 M  AS TOURNUS
22  FOLLENFANT  JUSTIN 949 00:36:15 + 00:04:16 SE M  CHAMPIONNAT UNIVERSITAIRE
23  DAUCHE  TRISTANT 945 00:36:19 + 00:04:20 JU M  CHAMPIONNAT UNIVERSITAIRE
24  BLAISE  BERTRAND 1033 00:36:19 + 00:04:20 M1 M  AC CHENOVE
25  GUERARD  PAUL 953 00:36:49 + 00:04:50 SE M  CHAMPIONNAT UNIVERSITAIRE
26  ROYER  PACO 965 00:36:50 + 00:04:51 ES M  CHAMPIONNAT UNIVERSITAIRE
27  RUAUX  DYLAN 1373 00:36:52 + 00:04:53 SE M  
28  BULLE  BERTRAND 1372 00:36:52 + 00:04:53 M1 M  ACR DIJON
29  CHARRON  ANTHONY 1376 00:36:52 + 00:04:53 SE M  FERRIERES SA
30  LUSTREMANT  MELANIE 984 00:36:58 + 00:04:59 SE F  CHAMPIONNAT UNIVERSITAIRE
31  GIRAUDINEAU  ALEXIS 951 00:36:58 + 00:04:59 SE M  CHAMPIONNAT UNIVERSITAIRE
32  LAMY  VINCENT 1314 00:37:06 + 00:05:07 M1 M  SEMUR ATHLETISME AVENTURE
33  ANDRE  JULIEN 1003 00:37:21 + 00:05:22 SE M  
34  MAAMOURI  CORALINE 985 00:37:22 + 00:05:23 SE F  CHAMPIONNAT UNIVERSITAIRE
35  BERTHAULT  PIERRE 1028 00:37:27 + 00:05:28 JU M  ATHLE 21
36  JACQUIN  DENIS 1191 00:37:44 + 00:05:45 M2 M  
37  ROUSSEL  RAPHAEL 1289 00:37:51 + 00:05:52 M1 M  
38  ODIN  LOIC 1247 00:37:51 + 00:05:52 M2 M  S/L LANGRES AC SUD HT MARNAIS
39  ROYER  LOUISE 992 00:37:57 + 00:05:58 ES F  CHAMPIONNAT UNIVERSITAIRE
40  BERQUAND  MANUEL 1027 00:38:02 + 00:06:03 SE M  S/L MACADAM ST VITOIS
41  BOURHIS  PAUL 940 00:38:35 + 00:06:36 ES M  CHAMPIONNAT UNIVERSITAIRE
42  GONCALVES  MARIE 998 00:38:35 + 00:06:36 ES F  CHAMPIONNAT UNIVERSITAIRE
43  MASSON  ROGER 1220 00:38:42 + 00:06:43 M2 M  DAC
44  POISSENOT  LAURENT 1157 00:38:44 + 00:06:45 M1 M  AV3S
45  BLANCHARD  FRANCK 1034 00:38:51 + 00:06:52 SE M  SEMUR ATHLETISME AVENTURE
46  PERA  GUILLAUME 957 00:38:52 + 00:06:53 ES M  CHAMPIONNAT UNIVERSITAIRE
47  CORBET  STEPHANE 1141 00:38:56 + 00:06:57 SE M  
48  ALBARACIN  NOE 971 00:38:56 + 00:06:57 ES M  CHAMPIONNAT UNIVERSITAIRE
49  CHARBONNEL  ALEXIS 942 00:39:02 + 00:07:03 ES M  CHAMPIONNAT UNIVERSITAIRE
50  DA CAMARA  MATHIAS 944 00:39:06 + 00:07:07 JU M  CHAMPIONNAT UNIVERSITAIRE
51  ORUS  CLEMENT 1249 00:39:10 + 00:07:11 SE M  ORUS
52  ESCALIER  NICOLAS 948 00:39:17 + 00:07:18 SE M  CHAMPIONNAT UNIVERSITAIRE
53  MOSCA  SEBASTIEN 1238 00:39:18 + 00:07:19 M1 M  S/L ATHLE 21 AO ARNETOISE
54  MAAMOURI  NOEMIE 986 00:39:21 + 00:07:22 SE F  CHAMPIONNAT UNIVERSITAIRE
55  MILLERET  PAUL 1346 00:39:26 + 00:07:27 ES M  GA HAUT SAONOIS (FC)
56  BOURGEOIS  CORENTIN 939 00:39:27 + 00:07:28 ES M  CHAMPIONNAT UNIVERSITAIRE
57  BOUVRAT  STEPHANE 1043 00:39:34 + 00:07:35 M1 M  
58  FOUILLOT  CHLOE 997 00:39:38 + 00:07:39 ES F  CHAMPIONNAT UNIVERSITAIRE
59  MAILLARBAUX  SAMUEL 1382 00:39:40 + 00:07:41 M1 M  MAILLARBAUX&CO
60  AURICHE  BERENGERE 999 00:39:47 + 00:07:48 ES F  CHAMPIONNAT UNIVERSITAIRE
61  PONNELLE  COLINE 1258 00:39:48 + 00:07:49 JU F  S/L ATHLE 21 AO ARNETOISE
62  POYET  FRANCK 1267 00:39:49 + 00:07:50 M1 M  DOLE AC
63  BONNET  THEO 1038 00:39:53 + 00:07:54 CA M  S/L ATHLE 21 AO ARNETOISE
64  PETER  HUGO 958 00:40:19 + 00:08:20 SE M  CHAMPIONNAT UNIVERSITAIRE
65  MARTIN  GERVAIS 1355 00:40:28 + 00:08:29 M2 M  
66  CROUZET  HUGO 1086 00:40:43 + 00:08:44 JU M  GA HAUT SAONOIS (FC)
67  MAYEULLE  PIERRE 1432 00:40:49 + 00:08:50 M1 M  
68  TREUCHOT  HERVE 1316 00:40:52 + 00:08:53 M2 M  SEMUR ATHLETISME AVENTURE
69  TANDIA  SALIM 1143 00:40:54 + 00:08:55 JU M  
70  CARNEIRO  DAVID 1052 00:40:57 + 00:08:58 SE M  US CHAMPLITTE
71  BERGER  FABRICE 1144 00:40:59 + 00:09:00 M2 M  
72  DUFOUR  ALEXANDRE 1104 00:41:03 + 00:09:04 SE M  ACR DIJON
73  TREUCHOT  CHARLOTTE 1315 00:41:05 + 00:09:06 CA F  UNION SPORTIVE CHEMINOTE DE VENAREY LES LAUMES ATH
74  DANISKAN  KENAN 1326 00:41:06 + 00:09:07 M2 M  
75  COURAGEOT  DAMIEN 1410 00:41:13 + 00:09:14 M1 M  RAID DEFI
76  BERTHELOT MORITZ  LENA 1000 00:41:18 + 00:09:19 ES F  CHAMPIONNAT UNIVERSITAIRE
77  BAZAILLE  STEVE 1019 00:41:19 + 00:09:20 M1 M  
78  MAITROT  ANDRE 1180 00:41:25 + 00:09:26 M3 M  SEMUR ATHLETISME AVENTURE
79  DECORSE  GAELLE 976 00:41:31 + 00:09:32 ES F  CHAMPIONNAT UNIVERSITAIRE
80  PILLOIX  BAPTISTE 959 00:41:34 + 00:09:35 ES M  CHAMPIONNAT UNIVERSITAIRE
81  CROTET  DAVID 1396 00:41:39 + 00:09:40 M2 M  
82  BENOIST  JOHAN 1022 00:41:47 + 00:09:48 SE M  
83  LOISY  JEAN SEBASTIEN 1203 00:41:48 + 00:09:49 M1 M  S/L ATHLE 21 AO ARNETOISE
84  TACLET  CLEMENT 1352 00:41:52 + 00:09:53 SE M  TRI VAL DE GRAY
85  STEHLY  MAXIME 1304 00:41:54 + 00:09:55 SE M  
86  PILLER  NICOLAS 1256 00:41:59 + 00:10:00 M1 M  SG HERICOURT
87  THOMASSET  BAPTISTE 966 00:42:06 + 00:10:07 JU M  CHAMPIONNAT UNIVERSITAIRE
88  TREUCHOT  MARGOT 995 00:42:24 + 00:10:25 JU F  CHAMPIONNAT UNIVERSITAIRE
89  CATY  BENJAMIN 1057 00:42:39 + 00:10:40 SE M  
90  PUJOS  ROMANE 1269 00:42:41 + 00:10:42 CA F  ATHLE 21 AO ARNETOISE
91  CLAUDE  ANTONIN 968 00:42:41 + 00:10:42 ES M  CHAMPIONNAT UNIVERSITAIRE
92  LADOUL  MARGAUX 982 00:42:42 + 00:10:43 SE F  CHAMPIONNAT UNIVERSITAIRE
93  RENAUX  ANAIS 990 00:42:43 + 00:10:44 ES F  CHAMPIONNAT UNIVERSITAIRE
94  NEISS  JEAN LOUIS 1243 00:42:48 + 00:10:49 M1 M  
95  LAURENT  ANTHONY 1158 00:42:59 + 00:11:00 SE M  
96  DUPUICH  MATHILDE 1390 00:43:01 + 00:11:02 SE F  
97  MATHEOS  ANTHONY 1221 00:43:03 + 00:11:04 SE M  
98  GOUX  FREDERIC 1383 00:43:04 + 00:11:05 M2 M  GA HAUT SAONOIS (FC)
99  DANIEL  CAMILLE 975 00:43:06 + 00:11:07 ES F  CHAMPIONNAT UNIVERSITAIRE
100  VILLENEUVE  STEPHANIE 1335 00:43:12 + 00:11:13 SE F  AJVN
101  PEREIRA  EMILIE 989 00:43:20 + 00:11:21 JU F  CHAMPIONNAT UNIVERSITAIRE
102  RENAUD  OLIVIER 1348 00:43:24 + 00:11:25 M1 M  ASSOCIATION BEAUNE ATHLETISME 21
103  GUENON  BRYAN 1286 00:43:24 + 00:11:25 SE M  
104  BAGUE  DIDIER 1156 00:43:29 + 00:11:30 M3 M  
105  CASTILLO  VINCENT 1055 00:43:39 + 00:11:40 SE M  
106  CORNE  ANTOINE 1082 00:43:39 + 00:11:40 ES M  
107  MARTIN  REMI 1218 00:43:40 + 00:11:41 SE M  
108  MICHELIN  MAXENCE 1446 00:43:41 + 00:11:42 SE M  
109  VIEIRA DA SILVA  REMI 1363 00:43:42 + 00:11:43 SE M  
110  ROBERT  EMMANUEL 1279 00:43:43 + 00:11:44 M1 M  
111  GUENERET  KRISTOFER 1081 00:43:44 + 00:11:45 SE M  AC CHENOVE
112  BAILLY SALINS  LOUIS 936 00:43:48 + 00:11:49 ES M  CHAMPIONNAT UNIVERSITAIRE
113  FLEUROT  BRUNO 1114 00:43:53 + 00:11:54 M1 M  
114  OGE  LOIC 970 00:43:53 + 00:11:54 ES M  CHAMPIONNAT UNIVERSITAIRE
115  MICHELIN  ERIC 1226 00:43:55 + 00:11:56 M2 M  
116  MINY  SEBASTIEN 1231 00:43:57 + 00:11:58 M1 M  
117  MERIC  PHILIPPE 1222 00:43:59 + 00:12:00 M2 M  MONTBELIARD MARATHON
118  MUSARD  PIERRE 1242 00:44:06 + 00:12:07 ES M  
119  BAUDOUIN  DAVID 1017 00:44:08 + 00:12:09 M1 M  
120  CATY  DIDIER 1058 00:44:11 + 00:12:12 M2 M  
121  HUBNER  DELPHINE 1075 00:44:18 + 00:12:19 M1 F  
122  MICHELIN  HONORE 1228 00:44:27 + 00:12:28 SE M  
123  LABILLE  QUENTIN 1347 00:44:29 + 00:12:30 SE M  DIJON TRIATHLON
124  MARCHESI  LUCAS 1214 00:44:32 + 00:12:33 CA M  
125  CHEVREUX  HUGO 1070 00:44:32 + 00:12:33 CA M  
126  PURRO  PAULINE 1386 00:44:36 + 00:12:37 SE F  DIJON TRIATHLON
127  SCHILDER  FREDERIC 1297 00:44:41 + 00:12:42 M2 M  
128  BORGNE  AMELIE 973 00:44:41 + 00:12:42 SE F  CHAMPIONNAT UNIVERSITAIRE
129  CLEVER  JEAN CHARLES 1077 00:44:43 + 00:12:44 M1 M  S/L ATHLE 21 AO ARNETOISE
130  CERCLEY  CHRISTOPHE 1059 00:44:47 + 00:12:48 M2 M  
131  BAUDHOIN  JULIEN 1411 00:44:53 + 00:12:54 M1 M  
132  HEURTEBIZE  LUKAS 954 00:44:54 + 00:12:55 ES M  CHAMPIONNAT UNIVERSITAIRE
133  KOZMICK  ALAIN 1115 00:44:55 + 00:12:56 M3 M  DOLE AC
134  BELIN  CLARA 1393 00:45:06 + 00:13:07 CA F  S/L DOUBS SUD ATHLETISME BESANCON
135  BRULET  ERIC 1049 00:45:09 + 00:13:10 M2 M  
136  LEHMANN  STESSY 1327 00:45:10 + 00:13:11 JU F  S/L ATHLE 21 AO ARNETOISE
137  BOUDIER  JEROME 1042 00:45:10 + 00:13:11 M1 M  S/L ATHLE 21 AO ARNETOISE
138  ROUX  PABLO 964 00:45:18 + 00:13:19 ES M  CHAMPIONNAT UNIVERSITAIRE
139  GUEURY  CELINE 1427 00:45:20 + 00:13:21 M1 F  GA HAUT SAONOIS (FC)
140  SATIN  HERMINE 1296 00:45:24 + 00:13:25 SE F  S/L AC AVALLON
141  LANGLOIS  OLIVIER 1188 00:45:29 + 00:13:30 M1 M  
142  CHENEVIER  JOCELYN 1064 00:45:31 + 00:13:32 SE M  
143  FRYS  CLAIRE 1136 00:45:32 + 00:13:33 SE F  
144  MAUREL  VINCENT 1418 00:45:39 + 00:13:40 SE M  S/L MACADAM ST VITOIS
145  ROVERETTO  HERVE 1291 00:45:40 + 00:13:41 M2 M  
146  LAMBERTI  BRUNO 1210 00:45:43 + 00:13:44 M1 M  
147  BAUGEY  LIONEL 1018 00:45:45 + 00:13:46 M2 M  
148  HUMBERT  CHRISTIAN 1009 00:45:47 + 00:13:48 M2 M  DOLE AC
149  RENAUD  ROLAND 1277 00:45:47 + 00:13:48 M2 M  AJVN
150  GEISSLER  BRICE 1389 00:45:51 + 00:13:52 SE M  PELOUSEY COUR TOUT DOUBS
151  LALANNE  CESAIRE 1285 00:45:59 + 00:14:00 M2 M  AJVN
152  MEULLE  DAMIEN 1224 00:46:05 + 00:14:06 SE M  
153  FERNANDES  DAVY 1110 00:46:07 + 00:14:08 SE M  
154  TIVERRIER  LUDOVIC 1419 00:46:09 + 00:14:10 M2 M  
155  CORTI  JEAN 1357 00:46:12 + 00:14:13 M3 M  
156  ROUSSEL  DAVID 1288 00:46:13 + 00:14:14 M1 M  
157  SIRVEAUX  PATRICIA 1425 00:46:19 + 00:14:20 M2 F  S/L CA DE LA HAUTE MOSELLE
158  JARROUX  GUILLAUME 1437 00:46:26 + 00:14:27 M1 M  
159  MEUNIER  FREDERIC 1225 00:46:30 + 00:14:31 M1 M  
160  CINI  VALERIE 1072 00:46:30 + 00:14:31 M1 F  GA HAUT SAONOIS (FC)
161  LOCATELLI  CYRIL 1201 00:46:32 + 00:14:33 M1 M  ASSOCIATION BEAUNE ATHLETISME 21
162  KALAA  FANNY 1313 00:46:32 + 00:14:33 SE F  
163  SOW  MAMADOU 1398 00:46:33 + 00:14:34 JU M  
164  MANENTI  PIERRE 1443 00:46:40 + 00:14:41 SE M  
165  LECOCQ  FREDERIC 1195 00:46:46 + 00:14:47 SE M  
166  THOMAS  XAVIER 1375 00:46:51 + 00:14:52 M1 M  ASSOCIATION BEAUNE ATHLETISME 21
167  BEURTON  LAURE 972 00:46:52 + 00:14:53 JU F  CHAMPIONNAT UNIVERSITAIRE
168  BOUCHE  ALAIN 1039 00:47:22 + 00:15:23 ES M  DIJON TRIATHLON
169  SULLIOT  HONORINE 1307 00:47:23 + 00:15:24 ES F  DIJON TRIATHLON
170  ROUGET  JULIEN 1287 00:47:29 + 00:15:30 CA M  DOLE AC
171  LEBRAS  PATRICK 1380 00:47:39 + 00:15:40 M3 M  S/L DOUBS SUD ATHLETISME BESANCON
172  DIAS  NATHAN 1101 00:47:41 + 00:15:42 SE M  
173  LANDEAU  CHARLES 1183 00:47:54 + 00:15:55 CA M  TRI VAL DE GRAY
174  POTEY  LIONEL 1262 00:47:54 + 00:15:55 M2 M  
175  POTEY  MAXIME 1263 00:47:55 + 00:15:56 JU M  
176  BENOIST  OLIVIER 1023 00:48:00 + 00:16:01 M2 M  
177  FERNANDEZ  JEAN LOUIS 1174 00:48:01 + 00:16:02 M2 M  
178  SCHNEGG  ERIC 1298 00:48:06 + 00:16:07 M2 M  ASPTT DIJON ATHLETISME
179  CHAHORY  ERWAN 1060 00:48:08 + 00:16:09 M1 M  
180  RAMEAU  STEPHANE 1385 00:48:14 + 00:16:15 SE M  
181  BROCARD  HUGO 1369 00:48:20 + 00:16:21 JU M  SAPEURS POMPIERS DE GRAY
182  SANCHEZ  EVA 993 00:48:22 + 00:16:23 ES F  CHAMPIONNAT UNIVERSITAIRE
183  LADOUL  ANAIS 981 00:48:26 + 00:16:27 SE F  CHAMPIONNAT UNIVERSITAIRE
184  BARDIN  LOIC 1442 00:48:27 + 00:16:28 SE M  
185  CATRIN  JEAN HERVE 1137 00:48:29 + 00:16:30 M3 M  COUREURS SUR ROUTE COTE D'OR
186  VACONNET  RAPHAEL 1317 00:48:30 + 00:16:31 SE M  
187  HERNANDEZ  JEAN MARC 1130 00:48:32 + 00:16:33 M1 M  
188  LOMBERGER  JEAN CHARLES 1204 00:48:33 + 00:16:34 SE M  
189  SIMON  GUILLAUME 1350 00:48:35 + 00:16:36 SE M  
190  PORTET  SEBASTIEN 1260 00:48:39 + 00:16:40 M1 M  
191  GRISOT  MATHIEU 1128 00:48:47 + 00:16:48 ES M  
192  MOREAU  JEAN FRANCOIS 1234 00:48:51 + 00:16:52 M3 M  SEMUR ATHLETISME AVENTURE
193  THEVENOT  JEAN MARIE 1387 00:48:53 + 00:16:54 M2 M  
194  OLLIVIER  SANDRA 1248 00:48:55 + 00:16:56 M1 F  SEMUR ATHLETISME AVENTURE
195  THUEILLON  FREDERIC 1165 00:48:56 + 00:16:57 M2 M  
196  NICOLAS  DANIEL 1139 00:48:57 + 00:16:58 M3 M  DOLE AC
197  DUDOIGNON  MARINE 977 00:49:00 + 00:17:01 JU F  CHAMPIONNAT UNIVERSITAIRE
198  KLABALZAN  CLAUDE 1112 00:49:02 + 00:17:03 M1 F  GA HAUT SAONOIS (FC)
199  TELLIER  JEAN PASCAL 1312 00:49:09 + 00:17:10 M2 M  VAL DE GRAY MARATHON
200  DUCOS  JEROME 1103 00:49:13 + 00:17:14 M2 M  ASSOCIATION BEAUNE ATHLETISME 21
201  ROSIER  ALAIN 1179 00:49:15 + 00:17:16 M3 M  GA HAUT SAONOIS (FC)
202  ARMINOT  STEPHANE 1153 00:49:15 + 00:17:16 M2 M  
203  BATAILLE  JEAN NOEL 1015 00:49:17 + 00:17:18 M2 M  
204  MUSARD  PAUL 1241 00:49:17 + 00:17:18 SE M  
205  POUX  PIERRE 1266 00:49:25 + 00:17:26 M4 M  GHAS
206  BOUDOT  JEAN PAUL 1403 00:49:37 + 00:17:38 M3 M  
207  JEUNOT  MICKAEL 1344 00:49:52 + 00:17:53 SE M  VAL DE GRAY MARATHON
208  HARO MUNOZ  CLEMENT 1073 00:49:57 + 00:17:58 SE M  
209  GAENDNER  FRANK 1120 00:49:59 + 00:18:00 M1 M  AS BESANCON MOBILITE
210  MEYRAND  JEANNIE 987 00:50:03 + 00:18:04 ES F  CHAMPIONNAT UNIVERSITAIRE
211  MANGIONE  ALINE 1212 00:50:09 + 00:18:10 SE F  COUREURS SUR ROUTE COTE D'OR
212  BAILLY  WILLIAM 1010 00:50:13 + 00:18:14 SE M  TRI VAL DE GRAY
213  LADERRIERE  AMELIE 1111 00:50:21 + 00:18:22 SE F  ASSOCIATION BEAUNE ATHLETISME 21
214  REMOND  PASCAL 1274 00:50:23 + 00:18:24 M3 M  ASPTT DIJON ATHLETISME
215  PONTE  ARÓN ELÍAS 1259 00:50:30 + 00:18:31 SE M  
216  JOUOT  BAPTISTE 1384 00:50:36 + 00:18:37 SE M  
217  ROIDOT  JOAHN 1282 00:50:40 + 00:18:41 ES M  
218  JEAN  MICKAEL 1413 00:50:41 + 00:18:42 SE M  
219  GOMES DOS SANTOS  MIGUEL 1108 00:50:44 + 00:18:45 ES M  GOMES DOS SANTOS
220  DANIELOU  BRUNO 1090 00:50:44 + 00:18:45 M3 M  ENTENTE JURA CENTRE ATHLETISME*
221  MILLE  BERNARD 1229 00:50:46 + 00:18:47 M4 M  LACSHM
222  VALLUET  ANNELISE 1318 00:50:47 + 00:18:48 SE F  
223  CHAPON  BAPTISTE 1178 00:50:53 + 00:18:54 CA M  
224  COURAGEOT  FLORENCE 1426 00:50:53 + 00:18:54 SE F  CAFC
225  HORVAT  SEBASTIEN 1447 00:50:54 + 00:18:55 M1 M  
226  ROUSSELET  MATTHIEU 1400 00:50:58 + 00:18:59 SE M  
227  PETIT  DIDIER 1254 00:51:02 + 00:19:03 M1 M  
228  PULICANI  HERVE 1270 00:51:02 + 00:19:03 M2 M  
229  RIGONDET  ROXANE 991 00:51:06 + 00:19:07 ES F  CHAMPIONNAT UNIVERSITAIRE
230  HUREL  JENNIFER 1415 00:51:08 + 00:19:09 SE F  
231  CHEVREUX  FREDERIC 1069 00:51:19 + 00:19:20 M1 M  
232  MARC  ALEXANDRE 1361 00:51:21 + 00:19:22 JU M  
233  GAUDILLAT  MATTHIEU 1173 00:51:27 + 00:19:28 SE M  
234  PILLON  ANGELINE 1334 00:51:28 + 00:19:29 SE F  ACV
235  COULON  MICHAEL 1084 00:51:28 + 00:19:29 M1 M  ACV
236  DARTEVEL  KEVIN 1093 00:51:29 + 00:19:30 ES M  
237  LACROIX  NICOLAS 1124 00:51:29 + 00:19:30 M1 M  
238  DORIDOU  ISABELLE 1333 00:51:31 + 00:19:32 M1 F  S/L MACADAM ST VITOIS
239  DEMASSUE  MICHAEL 1099 00:51:35 + 00:19:36 M1 M  
240  BRIE  HUGO 1047 00:51:36 + 00:19:37 JU M  
241  MOREL  NOEMIE 1237 00:51:37 + 00:19:38 SE F  TENNIS CLUB DE GRAY
242  EBLE  CEDRIC 1177 00:51:53 + 00:19:54 M1 M  
243  FRANCOIS  AUDREY 978 00:51:56 + 00:19:57 SE F  CHAMPIONNAT UNIVERSITAIRE
244  BERNAD  CHRISTOPHE 1365 00:51:57 + 00:19:58 M2 M  ASSOCIATION BEAUNE ATHLETISME 21
245  POULNOT  SEBASTIEN 1264 00:51:58 + 00:19:59 M1 M  
246  ROLAND  CAMILLE 1159 00:52:05 + 00:20:06 JU F  
247  LECOANET  AURELIE 1401 00:52:09 + 00:20:10 SE F  ASSOCIATION BEAUNE ATHLETISME 21
248  FROTEY  ALAIN 1420 00:52:22 + 00:20:23 M3 M  TRI VAL DE GRAY
249  JEANCLER  KELLY 1187 00:52:22 + 00:20:23 SE F  
250  MINOT  ANTOINE 1388 00:52:31 + 00:20:32 SE M  TC GRAY
251  BERRABOUKH  MENOUAR 1338 00:52:32 + 00:20:33 M2 M  
252  SORNAY  FANNY 1302 00:52:40 + 00:20:41 SE F  
253  BONNEFOY  JULIETTE 1331 00:52:48 + 00:20:49 SE F  
254  TABOURET  MARIE AMELIE 1309 00:52:55 + 00:20:56 JU F  S/L ATHLE 21 AO ARNETOISE
255  BOYARD  ADELE 1044 00:52:55 + 00:20:56 SE F  
256  MICHELIN  GEORGES 1227 00:52:57 + 00:20:58 M4 M  
257  VUILLEMIN  FREDERIC 1424 00:53:01 + 00:21:02 SE M  
258  LANDEAU  MARIUS 1185 00:53:02 + 00:21:03 CA M  
259  SEMONIN  FRANCK 1421 00:53:09 + 00:21:10 M1 M  
260  CORNE  LAURENT 1362 00:53:15 + 00:21:16 M2 M  
261  RATOUCHNIAK  BERTILLE 1272 00:53:20 + 00:21:21 SE F  
262  GALLAIT  THIERRY 1381 00:53:21 + 00:21:22 M2 M  S/L MACADAM ST VITOIS
263  QUIRICO  AURELIE 1271 00:53:22 + 00:21:23 SE F  S/L EJCA CHAMPAGNOLE
264  MOMPER  PHILIPPE 1232 00:53:22 + 00:21:23 M2 M  
265  BELIN  DELPHINE 1020 00:53:26 + 00:21:27 M1 F  S/L ATHLE 21 AO ARNETOISE
266  BILLET  EDWIGE 1253 00:53:29 + 00:21:30 SE F  
267  ROLAND  EMMANUELLE 1284 00:53:35 + 00:21:36 M1 F  
268  GRISOT  ERIC 1162 00:53:35 + 00:21:36 M1 M  
269  GOSSE  LYSE 979 00:53:36 + 00:21:37 JU F  CHAMPIONNAT UNIVERSITAIRE
270  DAVOUST  FABRICE 1094 00:53:37 + 00:21:38 M2 M  
271  CHEVANNE  JEAN FRANCOIS 1068 00:53:42 + 00:21:43 M3 M  
272  VANTAL  CEDRIC 1319 00:53:51 + 00:21:52 SE M  
273  BOUCHE  KARINE 1040 00:53:52 + 00:21:53 M1 F  
274  CHAUVELOT  EMMANUEL 1063 00:53:53 + 00:21:54 M1 M  
275  LOTSCH  OCEANE 983 00:53:54 + 00:21:55 JU F  CHAMPIONNAT UNIVERSITAIRE
276  JACQUIN  DOROTHEE 1134 00:53:55 + 00:21:56 SE F  
277  GOUX  MICHEL 1209 00:53:57 + 00:21:58 M2 M  TDR
278  PELTRET  CATHERINE 1366 00:54:02 + 00:22:03 M2 F  
279  CLEMENT  STEPHANE 1154 00:54:03 + 00:22:04 M1 M  
280  LOYER  JULIE 1205 00:54:08 + 00:22:09 M1 F  AJVN
281  ANGUENOT  JULIEN 1005 00:54:14 + 00:22:15 SE M  
282  BARD  SONIA 1014 00:54:16 + 00:22:17 M1 F  
283  GIBOULET  CAROLE 1428 00:54:19 + 00:22:20 SE F  RIOZ TRAIL TEAM / SPIRIDON ALSACE
284  KLEINE  AURELIE 1102 00:54:22 + 00:22:23 M1 F  
285  BLANCHOT  CELIA 1035 00:54:24 + 00:22:25 SE F  TC GRAY
286  VILLEROT  THIERRY 1320 00:54:27 + 00:22:28 M2 M  
287  BROUARD  THOMAS 1148 00:54:27 + 00:22:28 SE M  
288  CARTON  MARIE NOELLE 1054 00:54:28 + 00:22:29 M2 F  ATHLE 21
289  CURE  FLORENCE 1088 00:54:31 + 00:22:32 M2 F  ATHLE 21 AO ARNETOISE
290  RODOT  LUCILE 1330 00:54:34 + 00:22:35 M1 F  
291  GIROUX  STEPHANE 1126 00:54:38 + 00:22:39 M1 M  LES TORTUES DE BOUHANS
292  POSIERE  JEAN MARC 1261 00:54:40 + 00:22:41 M2 M  
293  DECHELETTE  EMMANUEL 1149 00:54:41 + 00:22:42 M2 M  
294  RUI  DOMINIQUE 1294 00:54:58 + 00:22:59 M2 M  
295  ANTOINE  ERIC 1007 00:55:02 + 00:23:03 M2 M  
296  BIZIOREK  STEPHANE 1032 00:55:05 + 00:23:06 M1 M  
297  LESPAGNOL  MICHEL 1197 00:55:07 + 00:23:08 M2 M  
298  ROBINET  REMI 1280 00:55:08 + 00:23:09 SE M  
299  GOMES  PATRICIA 1151 00:55:16 + 00:23:17 M1 F  
300  COCARDON  MICHAEL 1078 00:55:22 + 00:23:23 SE M  
301  GAENDNER  KARINE 1121 00:55:24 + 00:23:25 M1 F  RIOZ TRAIL TEAM
302  GACONNET  CHLOE 1119 00:55:29 + 00:23:30 SE F  
303  GUENON  FRANCK 1310 00:55:38 + 00:23:39 M1 M  
304  HUGOT  ESTELLE 1085 00:55:43 + 00:23:44 M1 F  
305  LEVEQUE  FLORENCE 1200 00:55:43 + 00:23:44 SE F  
306  ETIGNARD COLIN  PASCALINE 1132 00:55:45 + 00:23:46 M1 F  
307  MUNOZ  ANTOINE 1412 00:55:51 + 00:23:52 M3 M  
308  JEANROT  STEPHANE 1001 00:55:53 + 00:23:54 M1 M  
309  GAUSS  EMMANUEL 1125 00:56:05 + 00:24:06 M1 M  
310  PAULY  SANDRA 1252 00:56:05 + 00:24:06 M1 F  
311  MOLARD  LEO 1349 00:56:09 + 00:24:10 JU M  
312  MONGIN  BERNARD 1441 00:56:11 + 00:24:12 M4 M  
313  NASRI  KEVIN 1417 00:56:15 + 00:24:16 ES M  VAL DE GRAY MARATHON
314  LUCAS  CARLOS JOSE 1206 00:56:21 + 00:24:22 M2 M  
315  MARINONI  HERVE 1429 00:56:29 + 00:24:30 M2 M  DOLE AC
316  GOUX  LUDOVIC 1283 00:56:31 + 00:24:32 SE M  
317  GOUSSET  JEREMIE 1107 00:56:32 + 00:24:33 SE M  
318  MARTINOTY  STEPHANE 1219 00:56:40 + 00:24:41 M1 M  
319  BOISOT  FRANCK 1036 00:56:44 + 00:24:45 SE M  
320  GOVINDIN  PEGGY 1402 00:56:55 + 00:24:56 M1 F  AJPC CHAUMONT
321  GARLANDIER  LOLA 1354 00:56:59 + 00:25:00 SE F  
322  BILLION  BERNARD 1031 00:57:01 + 00:25:02 M1 M  
323  CHEVANNE  CORINNE 1067 00:57:07 + 00:25:08 M1 F  
324  BARTHELEMY  FRANCOISE 1433 00:57:13 + 00:25:14 M2 F  
325  BEURET  FREDERIQUE 1029 00:57:19 + 00:25:20 M2 F  
326  STUDLI  HERVE 1306 00:57:21 + 00:25:22 M1 M  
327  LUCOT  ALAIN 1207 00:57:23 + 00:25:24 M1 M  
328  LAJOIE  LILOU 1062 00:57:25 + 00:25:26 CA F  S/L ATHLE 21 AO ARNETOISE
329  HORREARD  HERVE 1008 00:57:26 + 00:25:27 M2 M  SAPEURS POMPIERS DE GRAY
330  GROSJEAN  GUILLAUME 1438 00:57:27 + 00:25:28 SE M  
331  BIGOTTE  LAETITIA 1030 00:57:37 + 00:25:38 M1 F  
332  JEHL  ALICE 1199 00:57:48 + 00:25:49 SE F  S/L MACADAM ST VITOIS
333  POUPHIL  VICTORIA 1265 00:58:04 + 00:26:05 SE F  
334  ANELLI  EUGENE 1004 00:58:05 + 00:26:06 M2 M  
335  MERCIER  PASCAL 1431 00:58:07 + 00:26:08 M2 M  
336  BARBIER  NADEGE 1013 00:58:07 + 00:26:08 M3 F  CAC 39
337  ROUANET  BEATRICE 1448 00:58:24 + 00:26:25 M2 F  DSA SAINT VIT
338  LAROYENNE  NINA 1189 00:58:30 + 00:26:31 SE F  
339  ROUSSEY  ALEXANDRA 1150 00:58:31 + 00:26:32 M1 F  
340  FACON  MAXIME 1109 00:58:33 + 00:26:34 SE M  
341  MOUTARD  NADIA 1240 00:58:34 + 00:26:35 M1 F  ATHLE 21 AO ARNETOISE
342  BATAILLE  SYLVIE 1016 00:58:35 + 00:26:36 M3 F  
343  BELOT  STEPHANE 1021 00:58:35 + 00:26:36 SE M  
344  STOS  DELPHINE 994 00:58:46 + 00:26:47 ES F  CHAMPIONNAT UNIVERSITAIRE
345  MOUQUOD  SAMUEL 1341 00:58:48 + 00:26:49 M1 M  
346  LINOTTE  SABINE 1378 00:58:51 + 00:26:52 M1 F  
347  GOGAT  SUZIE 1129 00:58:55 + 00:26:56 CA F  
348  COQUIBUS  CAMILLE 1080 00:58:55 + 00:26:56 SE F  
349  LEPEYTRE  FREDERIC 1414 00:58:56 + 00:26:57 SE M  
350  MOREAU  MARTIAL 1236 00:58:58 + 00:26:59 M2 M  
351  MERLE  MARIE 1325 00:59:03 + 00:27:04 SE F  
352  ROSIER  MARIE LOUISE 1142 00:59:04 + 00:27:05 M3 F  GA HAUT SAONOIS (FC)
353  NOURRISSON  HERVE 1246 00:59:07 + 00:27:08 M2 M  
354  TONNERRE  ANNICK 1168 00:59:09 + 00:27:10 M3 F  DOLE AC
355  BLANC  PAULINE 1435 00:59:16 + 00:27:17 JU F  
356  PILLOUD  STEPHANIE 1405 00:59:16 + 00:27:17 SE F  PILLOUD
357  BAILLE BARRELLE  STEPHANIE 1342 00:59:16 + 00:27:17 SE F  
358  CHERREY  LAURENCE 1065 00:59:20 + 00:27:21 M1 F  
359  ERGOTTE  CATHERINE 1133 00:59:21 + 00:27:22 M2 F  
360  CHERREY  SYLVAIN 1066 00:59:22 + 00:27:23 M1 M  
361  TATIN FROUX  FABIENNE 1311 00:59:34 + 00:27:35 M1 F  S/L MACADAM ST VITOIS
362  MAIRET  MAUD 1430 00:59:36 + 00:27:37 SE F  
363  DEMANGE  BERNADETTE 1098 00:59:36 + 00:27:37 M3 F  S/L LANGRES AC SUD HT MARNAIS
364  BELIN  ROMANE 1343 00:59:40 + 00:27:41 JU F  S/L ATHLE 21 AO ARNETOISE
365  GRAEHLING  ANDREA 1118 00:59:41 + 00:27:42 M3 F  
366  MAILLARD  BRICE 1434 00:59:45 + 00:27:46 JU M  
367  FERRY  GERARD 1169 00:59:45 + 00:27:46 M4 M  
368  EBLE  SONIA 1176 00:59:49 + 00:27:50 M1 F  
369  CIPRIAN  CORENTIN 1146 00:59:51 + 00:27:52 ES M  
370  ROY  CHRISTIAN 1292 00:59:52 + 00:27:53 M3 M  
371  SEDAN  SOPHIE 1299 00:59:53 + 00:27:54 M1 F  
372  GARNIER  PAULINE 1123 01:00:05 + 00:28:06 SE F  
373  DAGOGNET  MARTINE 1089 01:00:15 + 00:28:16 M3 F  
374  PONS  JIMMY 1360 01:00:15 + 00:28:16 M1 M  
375  DIRAND  CHRISTELLE 1324 01:00:17 + 00:28:18 M1 F  S/L ASPTT MULHOUSE
376  SEGUINOT  ANTOINE 1300 01:00:32 + 00:28:33 SE M  
377  ROY  EVELYNE 1293 01:00:37 + 00:28:38 M2 F  
378  DE OLIVEIRA  VICTOR 1095 01:00:37 + 00:28:38 M1 M  
379  FONDARD  CHRISTELLE 1116 01:00:38 + 00:28:39 M1 F  
380  COURIOL  ELISABETH 1155 01:00:41 + 00:28:42 M1 F  
381  HERANNEY  CAMILLE 1281 01:00:41 + 00:28:42 ES F  CROSSFIT ELECTRON
382  BUZER  ELODIE 1050 01:00:45 + 00:28:46 SE F  CROSSFIT ELECTRON
383  KULCZEWSKI  BOGDAN 1290 01:00:46 + 00:28:47 M1 M  
384  MINET  VALERIE 1230 01:01:04 + 00:29:05 M2 F  
385  BENOIT  HELENE 1024 01:01:10 + 00:29:11 M2 F  
386  ANTOINE  BENEDICTE 1006 01:01:11 + 00:29:12 M1 F  
387  LEUVREY  IRENE 1198 01:01:36 + 00:29:37 SE F  
388  LEUVREY  CYRIL 1404 01:01:38 + 00:29:39 SE M  
389  JACQUEY  MARIE CHRISTINE 1340 01:02:11 + 00:30:12 M3 F  
390  LANDEAU  ROMANE 1186 01:02:29 + 00:30:30 ES F  
391  LANDEAU  ANTONIN 1182 01:02:30 + 00:30:31 JU M  VAL DE GRAY NATATION
392  CLAVEQUIN  VIRGINIE 1074 01:02:31 + 00:30:32 M1 F  
393  MARESCOT  MIROSLAVA 1215 01:02:37 + 00:30:38 SE F  
394  LAURENCOT  VERONIQUE 1190 01:02:41 + 00:30:42 M1 F  
395  MARCHAL  CARINE 1213 01:02:41 + 00:30:42 M1 F  ASSOCIATION BEAUNE ATHLETISME 21
396  CABART  ISABELLE 1051 01:02:43 + 00:30:44 M2 F  
397  LECHAUVE  VERONIQUE 1194 01:02:48 + 00:30:49 M2 F  
398  GRIVEL  ALEXANDRA 1368 01:02:56 + 00:30:57 M1 F  
399  DANJOU  CATHERINE 1092 01:03:00 + 00:31:01 M3 F  
400  COTY  EDWIGE 1083 01:03:09 + 00:31:10 M2 F  
401  HEITZ  TIPHAINE 1332 01:03:14 + 00:31:15 SE F  ASSOCIATION BEAUNE ATHLETISME 21
402  DEPLANQUE  OPHELIE 1370 01:03:16 + 00:31:17 SE F  
403  COMBET  CORINNE 1079 01:03:18 + 00:31:19 M2 F  CAC 39
404  GAUCHET  MICHEL 1409 01:03:26 + 00:31:27 M3 F  
405  GROSPELLIER  SEBASTIEN 1423 01:03:27 + 00:31:28 M1 M  
406  BALLEUX  NICOLAS 1011 01:03:29 + 00:31:30 SE M  
407  LAFFAITEUR  ISABELLE 1106 01:03:43 + 00:31:44 M2 F  LES CHAUFFE LA SEMELLE
408  KAPSA  CELINA 980 01:03:48 + 00:31:49 JU F  CHAMPIONNAT UNIVERSITAIRE
409  PREVOTAT  SOLENE 1268 01:03:49 + 00:31:50 CA F  
410  DELPUECH  AMELYA 1097 01:03:50 + 00:31:51 CA F  S/L ATHLE 21 AO ARNETOISE
411  LAVOUX  SEVERINE 1192 01:03:51 + 00:31:52 M1 F  
412  ALLEMAND  SEVERINE 1163 01:03:54 + 00:31:55 M1 F  
413  GUILLEMIN  KARINE 1026 01:04:03 + 00:32:04 CA F  
414  BRESSON  AURELIEN 1046 01:04:05 + 00:32:06 SE M  SIMU
415  CHEVREUX  SYLVETTE 1071 01:04:14 + 00:32:15 M1 F  
416  BOITEUX  CATHERINE 1037 01:04:22 + 00:32:23 M3 F  CHAUFFE LA SEMELLE
417  FRYS  ARMELLE 1152 01:04:22 + 00:32:23 SE F  
418  NEE  OLIVIER 1392 01:04:24 + 00:32:25 M1 M  
419  MLEZIVOVA  BLANKA 1391 01:04:25 + 00:32:26 SE F  
420  MONTENOT  YAMINA 1233 01:04:28 + 00:32:29 M2 F  ASSOCIATION BEAUNE ATHLETISME 21
421  KASPER  PATRICK 1170 01:04:30 + 00:32:31 M3 M  
422  CUCHEVAL  SANDRINE 1087 01:04:36 + 00:32:37 M1 F  
423  ZAMMARIOTTO  LYDIE 1323 01:04:38 + 00:32:39 M3 F  
424  PONEL  SEVERINE 1336 01:04:45 + 00:32:46 SE F  S/L ATHLE 21 AO ARNETOISE
425  LAJOIE  ERIC 1105 01:04:46 + 00:32:47 M1 M  S/L ATHLE 21 AO ARNETOISE
426  DROUVILLE CHAPELLE  CHANTAL 1351 01:04:53 + 00:32:54 SE F  PCTD
427  MARQUELET  PATRICIA 1216 01:05:22 + 00:33:23 M2 F  
428  MOTTEY  MICHEL 1239 01:05:34 + 00:33:35 M3 M  
429  GODEMET  MARIE 1140 01:05:36 + 00:33:37 M1 F  
430  GODEMET  OLIVIER 1138 01:05:37 + 00:33:38 M2 M  
431  RENAUD  MARTINE 1276 01:06:01 + 00:34:02 SE F  
432  HERGOTT  ROMUALD 1096 01:06:03 + 00:34:04 SE M  
433  HERGOTT  LUCIE 1048 01:06:04 + 00:34:05 SE F  
434  AMIARD  SEBASTIEN 1002 01:06:07 + 00:34:08 SE M  
435  BLANC  EMMANUEL 1399 01:06:11 + 00:34:12 M1 M  
436  BERCOT  MAUD 1395 01:06:12 + 00:34:13 SE F  
437  CHARLOT  MARC 1367 01:06:27 + 00:34:28 M3 M  
438  NOIROT  CHRISTELLE 1345 01:06:45 + 00:34:46 M1 F  VAL DE GRAY MARATHON
439  YONNET  FREDERIQUE 1322 01:06:50 + 00:34:51 M1 F  
440  RENAUD  AURELIA 1275 01:06:59 + 00:35:00 SE F  
441  MARTINONI  MEGANE 1445 01:06:59 + 00:35:00 SE F  
442  MARTINONI  MICHEL 1444 01:06:59 + 00:35:00 M1 M  
443  LALLEMAND  SOLINE 1379 01:07:02 + 00:35:03 ES F  
444  FLAMAND  STEPHANIE 1113 01:07:04 + 00:35:05 M1 F  
445  FLEUROTTE  CAROLINE 1171 01:07:06 + 00:35:07 M1 F  
446  ROGNON  SANDRINE 1147 01:07:06 + 00:35:07 M1 F  
447  TABOURET  AGNES 1308 01:07:13 + 00:35:14 M1 F  
448  LANDO  VINCENT 1161 01:07:36 + 00:35:37 M1 M  
449  MALAPLATE  FREDERIQUE 1211 01:07:45 + 00:35:46 M1 F  
450  KESSLER  EMILIE 1181 01:08:06 + 00:36:07 SE F  
451  KEOPHILAVONG  SOUPHAPHONE 1172 01:08:06 + 00:36:07 M1 F  
452  GRANDCHAMP  LUCIE 1406 01:08:07 + 00:36:08 SE F  
453  MERLE  EVELYNE 1223 01:08:14 + 00:36:15 M2 F  
454  JEANNERET  MARIE 1056 01:08:42 + 00:36:43 M1 F  
455  LOCATELLI  SANDRA 1202 01:08:47 + 00:36:48 M1 F  ASSOCIATION BEAUNE ATHLETISME 21
456  JARROT  EMILIE 1091 01:08:54 + 00:36:55 M1 F  
457  LAFFAGE  CAROLINE 1278 01:09:04 + 00:37:05 SE F  
458  PERNIN  AURORE 1422 01:09:13 + 00:37:14 SE F  
459  HERNANDEZ  CHRISTIAN 1167 01:09:14 + 00:37:15 M3 M  
460  BOUCHET  ANNE CLAUDE 1041 01:09:32 + 00:37:33 M2 F  
461  HENTRY  CLEMENCE 1359 01:10:24 + 00:38:25 SE F  
462  LEVEQUE  EMILIE 1164 01:10:54 + 00:38:55 SE F  
463  MARTIN  MICHEL 1131 01:10:58 + 00:38:59 M3 M  
464  DROUET  MARIE CLAIRE 1166 01:10:58 + 00:38:59 M4 F  DOLE AC
465  PELLEAU  ANNE CLAIRE 1439 01:11:20 + 00:39:21 SE F  
466  ROBLOT  VERONIQUE 1416 01:11:53 + 00:39:54 M1 F  
467  BERGELIN  XAVIER 1440 01:12:34 + 00:40:35 M1 M  
468  NOIROT  NATHALIE 1245 01:13:13 + 00:41:14 M2 F  
469  REGARD  SARAH 1273 01:14:13 + 00:42:14 SE F  
470  CARRE  THOMAS 1053 01:14:23 + 00:42:24 SE M  
471  MOREAU  MAELY 1235 01:14:35 + 00:42:36 CA F  
472  ROCHE  JULIE 1329 01:14:58 + 00:42:59 SE F  
473  GUELLE  NATHALIE 1337 01:16:03 + 00:44:04 SE F  
474  CLERC  ANGELIQUE 1076 01:16:03 + 00:44:04 M1 F  
475  LEPAINTRE  GERARD 1196 01:16:24 + 00:44:25 M2 M  
476  NICOLARDOT  MARIE LAURE 1436 01:16:24 + 00:44:25 SE F  
477  MOREL YUNCK  MICHEL 1358 01:16:28 + 00:44:29 M3 M  
478  FERREUX  JEAN LOUIS 1339 01:18:30 + 00:46:31 M2 M  
479  HEYWOOD  ROBERT 1117 01:19:56 + 00:47:57 M5 M  DARTFORD HARRIERS ATHLETIC CLUB
480  REGNIER  FREDERIC 1397 01:26:08 + 00:54:09 M2 M  
481  CHANLIAUD  HENRI 1061 01:28:06 + 00:56:07 M3 M  
482  PANSARD  VIRGINIE 1251 01:28:07 + 00:56:08 M1 F  

 

 

Les résultats vous sont offerts par

Télécharger en pdf

 

 

 

 

 

 

 

 

 

 

 

 

 

 

 

 

 

 

 

 

 

 

 

chronometrage,chronométrage, sportif, chrono, course, course à pied, trail, trails, couse nature, puce, U-DAG, loto